Etusivu
METAR-TAF:

METAR-TAF

Lentoasemat :

Touggourt, Algeria

Leveyspiiri: 33-07N, Pituuspiiri: 006-08E, korkeus merenpinnasta: 85 m

Tämänhetkinen sää

Tämä raportti tehtiin 22 minuuttia sitten, kello 13.00 UTC
Tuuli 8 kn pohjoisesta/koillisesta
Lämpötila 25°C
Kosteus 34%
Ilmanpaine 1007 hPa
Näkyvyys: 5000 m

METAR: DAUK 021300Z 02008KT 5000 NSC 25/08 Q1007

Aika: 14:22 (13:22 UTC)

Sääennuste

Tämä raportti tehtiin 2 tuntia ja 22 minuuttia sitten, kello 11.00 UTC
Ennuste voimassa 02. päivästä klo 12 UTC - 02. päivään klo 21 UTC
Tuuli 14 kn koillisesta
Näkyvyys: 6000 m

TAF: DAUK 021100Z 0212/0221 04014KT 6000 NSC

Säähavainnot ja -ennusteet yli 4000 lentoasemalta (METAR- ja TAF-raportit).

Käytössä olevat sääasemat on merkitty karttaan keltaisilla ja punaisilla pisteillä.

Aseta hiiri pisteen päälle nähdäksesi sääaseman nimen.

Klikkaa sitten nähdäksesi säähavainnot ja -ennusteet.

Kartan vaihtaminen: klikkaa mustalla rastilla varustettuja vihreitä pisteitä, niin voit zoomata sisään; viivalla varustettua vihreää pistettä, niin voit zoomata ulos tai vihreitä nuolia, niin pääset viereisille kartoille.


METAR-TAF: